sensor_id;sensor_type;location;lat;lon;timestamp;P1;durP1;ratioP1;P2;durP2;ratioP2
56599;SDS011;51832;48.152;11.530;2023-03-23T00:03:16;2.90;;;2.60;;
56599;SDS011;51832;48.152;11.530;2023-03-23T00:08:18;3.42;;;2.22;;
56599;SDS011;51832;48.152;11.530;2023-03-23T00:13:23;3.05;;;2.40;;
56599;SDS011;51832;48.152;11.530;2023-03-23T00:18:24;3.28;;;2.30;;
56599;SDS011;51832;48.152;11.530;2023-03-23T00:23:25;3.80;;;2.47;;
56599;SDS011;51832;48.152;11.530;2023-03-23T00:28:26;3.22;;;2.40;;
56599;SDS011;51832;48.152;11.530;2023-03-23T00:33:27;3.58;;;2.55;;
56599;SDS011;51832;48.152;11.530;2023-03-23T00:38:30;3.40;;;2.30;;
56599;SDS011;51832;48.152;11.530;2023-03-23T00:43:31;3.38;;;2.28;;
56599;SDS011;51832;48.152;11.530;2023-03-23T00:48:36;3.55;;;2.88;;
56599;SDS011;51832;48.152;11.530;2023-03-23T00:53:44;5.10;;;2.70;;
56599;SDS011;51832;48.152;11.530;2023-03-23T00:58:45;3.88;;;2.40;;
56599;SDS011;51832;48.152;11.530;2023-03-23T01:03:45;3.77;;;2.60;;
56599;SDS011;51832;48.152;11.530;2023-03-23T01:08:46;3.65;;;2.42;;
56599;SDS011;51832;48.152;11.530;2023-03-23T01:13:46;2.88;;;2.30;;
56599;SDS011;51832;48.152;11.530;2023-03-23T01:18:47;3.35;;;2.10;;
56599;SDS011;51832;48.152;11.530;2023-03-23T01:23:47;4.38;;;2.03;;
56599;SDS011;51832;48.152;11.530;2023-03-23T01:28:48;2.05;;;1.88;;
56599;SDS011;51832;48.152;11.530;2023-03-23T01:33:48;3.90;;;2.13;;
56599;SDS011;51832;48.152;11.530;2023-03-23T01:38:52;2.75;;;2.05;;
56599;SDS011;51832;48.152;11.530;2023-03-23T01:44:01;4.10;;;2.22;;
56599;SDS011;51832;48.152;11.530;2023-03-23T01:49:07;5.80;;;2.83;;
56599;SDS011;51832;48.152;11.530;2023-03-23T01:54:14;3.60;;;2.30;;
56599;SDS011;51832;48.152;11.530;2023-03-23T01:59:21;4.07;;;2.15;;
56599;SDS011;51832;48.152;11.530;2023-03-23T02:04:25;2.90;;;2.20;;
56599;SDS011;51832;48.152;11.530;2023-03-23T02:09:26;3.20;;;2.13;;
56599;SDS011;51832;48.152;11.530;2023-03-23T02:14:27;2.20;;;2.00;;
56599;SDS011;51832;48.152;11.530;2023-03-23T02:35:17;2.78;;;2.10;;
56599;SDS011;51832;48.152;11.530;2023-03-23T02:40:27;4.18;;;2.17;;
56599;SDS011;51832;48.152;11.530;2023-03-23T02:45:31;2.30;;;1.90;;
56599;SDS011;51832;48.152;11.530;2023-03-23T02:50:34;3.72;;;2.40;;
56599;SDS011;51832;48.152;11.530;2023-03-23T02:55:38;2.63;;;2.03;;
56599;SDS011;51832;48.152;11.530;2023-03-23T03:00:42;3.22;;;2.03;;
56599;SDS011;51832;48.152;11.530;2023-03-23T03:21:04;5.05;;;2.05;;
56599;SDS011;51832;48.152;11.530;2023-03-23T03:26:09;4.03;;;2.10;;
56599;SDS011;51832;48.152;11.530;2023-03-23T03:31:12;3.17;;;2.03;;
56599;SDS011;51832;48.152;11.530;2023-03-23T03:36:17;2.35;;;2.00;;
56599;SDS011;51832;48.152;11.530;2023-03-23T03:41:20;2.78;;;1.90;;
56599;SDS011;51832;48.152;11.530;2023-03-23T03:46:21;3.90;;;2.05;;
56599;SDS011;51832;48.152;11.530;2023-03-23T03:51:22;4.00;;;2.35;;
56599;SDS011;51832;48.152;11.530;2023-03-23T03:56:23;2.90;;;1.98;;
56599;SDS011;51832;48.152;11.530;2023-03-23T04:01:25;4.13;;;2.40;;
56599;SDS011;51832;48.152;11.530;2023-03-23T04:06:25;2.20;;;1.67;;
56599;SDS011;51832;48.152;11.530;2023-03-23T04:11:27;5.50;;;2.20;;
56599;SDS011;51832;48.152;11.530;2023-03-23T04:16:28;3.67;;;1.92;;
56599;SDS011;51832;48.152;11.530;2023-03-23T04:21:29;3.15;;;1.85;;
56599;SDS011;51832;48.152;11.530;2023-03-23T04:26:29;5.88;;;1.90;;
56599;SDS011;51832;48.152;11.530;2023-03-23T04:31:30;2.72;;;2.08;;
56599;SDS011;51832;48.152;11.530;2023-03-23T04:36:30;2.43;;;2.23;;
56599;SDS011;51832;48.152;11.530;2023-03-23T04:41:33;3.45;;;2.10;;
56599;SDS011;51832;48.152;11.530;2023-03-23T04:46:35;3.65;;;2.30;;
56599;SDS011;51832;48.152;11.530;2023-03-23T04:51:36;4.15;;;1.67;;
56599;SDS011;51832;48.152;11.530;2023-03-23T04:56:39;4.00;;;1.60;;
56599;SDS011;51832;48.152;11.530;2023-03-23T05:01:41;3.30;;;2.00;;
56599;SDS011;51832;48.152;11.530;2023-03-23T05:06:45;4.68;;;2.63;;
56599;SDS011;51832;48.152;11.530;2023-03-23T05:11:46;3.60;;;2.00;;
56599;SDS011;51832;48.152;11.530;2023-03-23T05:16:46;2.28;;;1.83;;
56599;SDS011;51832;48.152;11.530;2023-03-23T05:21:48;2.67;;;1.95;;
56599;SDS011;51832;48.152;11.530;2023-03-23T05:26:49;3.15;;;2.08;;
56599;SDS011;51832;48.152;11.530;2023-03-23T05:31:52;3.60;;;2.10;;
56599;SDS011;51832;48.152;11.530;2023-03-23T05:36:55;2.38;;;2.03;;
56599;SDS011;51832;48.152;11.530;2023-03-23T05:41:57;2.75;;;1.85;;
56599;SDS011;51832;48.152;11.530;2023-03-23T05:46:58;6.00;;;2.08;;
56599;SDS011;51832;48.152;11.530;2023-03-23T05:51:58;2.15;;;1.92;;
56599;SDS011;51832;48.152;11.530;2023-03-23T05:56:59;3.63;;;2.13;;
56599;SDS011;51832;48.152;11.530;2023-03-23T06:01:59;3.13;;;2.42;;
56599;SDS011;51832;48.152;11.530;2023-03-23T06:07:03;2.60;;;2.17;;
56599;SDS011;51832;48.152;11.530;2023-03-23T06:12:04;3.40;;;1.98;;
56599;SDS011;51832;48.152;11.530;2023-03-23T06:17:05;4.53;;;2.28;;
56599;SDS011;51832;48.152;11.530;2023-03-23T06:22:06;2.60;;;2.40;;
56599;SDS011;51832;48.152;11.530;2023-03-23T06:27:06;16.23;;;4.63;;
56599;SDS011;51832;48.152;11.530;2023-03-23T06:32:09;3.67;;;2.47;;
56599;SDS011;51832;48.152;11.530;2023-03-23T06:37:12;3.45;;;2.40;;
56599;SDS011;51832;48.152;11.530;2023-03-23T06:42:12;3.58;;;2.50;;
56599;SDS011;51832;48.152;11.530;2023-03-23T06:47:13;4.80;;;2.63;;
56599;SDS011;51832;48.152;11.530;2023-03-23T06:52:13;3.47;;;2.47;;
56599;SDS011;51832;48.152;11.530;2023-03-23T06:57:14;7.78;;;3.10;;
56599;SDS011;51832;48.152;11.530;2023-03-23T07:02:14;5.90;;;2.83;;
56599;SDS011;51832;48.152;11.530;2023-03-23T07:07:15;4.70;;;2.97;;
56599;SDS011;51832;48.152;11.530;2023-03-23T07:12:18;7.35;;;2.80;;
56599;SDS011;51832;48.152;11.530;2023-03-23T07:17:18;4.00;;;2.75;;
56599;SDS011;51832;48.152;11.530;2023-03-23T07:22:19;7.38;;;3.28;;
56599;SDS011;51832;48.152;11.530;2023-03-23T07:27:20;6.40;;;2.70;;
56599;SDS011;51832;48.152;11.530;2023-03-23T07:32:20;4.82;;;2.65;;
56599;SDS011;51832;48.152;11.530;2023-03-23T07:37:21;8.57;;;2.95;;
56599;SDS011;51832;48.152;11.530;2023-03-23T07:42:22;3.25;;;2.70;;
56599;SDS011;51832;48.152;11.530;2023-03-23T07:47:23;4.07;;;2.53;;
56599;SDS011;51832;48.152;11.530;2023-03-23T07:52:23;3.17;;;2.20;;
56599;SDS011;51832;48.152;11.530;2023-03-23T07:57:24;4.80;;;2.63;;
56599;SDS011;51832;48.152;11.530;2023-03-23T08:02:24;7.53;;;2.80;;
56599;SDS011;51832;48.152;11.530;2023-03-23T08:07:26;3.22;;;2.38;;
56599;SDS011;51832;48.152;11.530;2023-03-23T08:12:26;4.07;;;2.33;;
56599;SDS011;51832;48.152;11.530;2023-03-23T08:17:27;4.00;;;2.40;;
56599;SDS011;51832;48.152;11.530;2023-03-23T08:22:28;4.20;;;2.28;;
56599;SDS011;51832;48.152;11.530;2023-03-23T08:27:29;3.70;;;1.92;;
56599;SDS011;51832;48.152;11.530;2023-03-23T08:32:30;3.30;;;2.40;;
56599;SDS011;51832;48.152;11.530;2023-03-23T08:37:31;4.00;;;2.40;;
56599;SDS011;51832;48.152;11.530;2023-03-23T08:42:31;3.60;;;1.98;;
56599;SDS011;51832;48.152;11.530;2023-03-23T08:47:31;3.23;;;2.40;;
56599;SDS011;51832;48.152;11.530;2023-03-23T08:52:32;3.15;;;2.17;;
56599;SDS011;51832;48.152;11.530;2023-03-23T08:57:32;3.92;;;1.90;;
56599;SDS011;51832;48.152;11.530;2023-03-23T09:02:33;3.95;;;2.05;;
56599;SDS011;51832;48.152;11.530;2023-03-23T09:07:34;2.92;;;2.03;;
56599;SDS011;51832;48.152;11.530;2023-03-23T09:12:35;3.33;;;2.15;;
56599;SDS011;51832;48.152;11.530;2023-03-23T09:17:37;3.85;;;2.10;;
56599;SDS011;51832;48.152;11.530;2023-03-23T09:22:40;3.28;;;1.90;;
56599;SDS011;51832;48.152;11.530;2023-03-23T09:27:42;5.43;;;2.00;;
56599;SDS011;51832;48.152;11.530;2023-03-23T09:32:43;3.08;;;2.20;;
56599;SDS011;51832;48.152;11.530;2023-03-23T09:37:44;3.40;;;2.00;;
56599;SDS011;51832;48.152;11.530;2023-03-23T09:42:58;2.40;;;2.20;;
56599;SDS011;51832;48.152;11.530;2023-03-23T09:53:39;5.47;;;3.20;;
56599;SDS011;51832;48.152;11.530;2023-03-23T09:58:46;3.22;;;2.88;;
56599;SDS011;51832;48.152;11.530;2023-03-23T10:03:52;4.88;;;3.03;;
56599;SDS011;51832;48.152;11.530;2023-03-23T10:09:01;5.47;;;3.20;;
56599;SDS011;51832;48.152;11.530;2023-03-23T10:19:29;4.63;;;2.95;;
56599;SDS011;51832;48.152;11.530;2023-03-23T10:24:35;4.18;;;2.65;;
56599;SDS011;51832;48.152;11.530;2023-03-23T10:29:46;4.97;;;2.45;;
56599;SDS011;51832;48.152;11.530;2023-03-23T10:34:53;2.95;;;2.60;;
56599;SDS011;51832;48.152;11.530;2023-03-23T10:39:58;3.30;;;2.40;;
56599;SDS011;51832;48.152;11.530;2023-03-23T10:45:10;3.75;;;2.10;;
56599;SDS011;51832;48.152;11.530;2023-03-23T10:50:26;2.92;;;2.15;;
56599;SDS011;51832;48.152;11.530;2023-03-23T10:55:40;2.63;;;2.15;;
56599;SDS011;51832;48.152;11.530;2023-03-23T11:00:44;3.00;;;2.28;;
56599;SDS011;51832;48.152;11.530;2023-03-23T11:15:51;5.82;;;2.42;;
56599;SDS011;51832;48.152;11.530;2023-03-23T11:20:53;4.15;;;2.70;;
56599;SDS011;51832;48.152;11.530;2023-03-23T11:30:59;3.38;;;2.72;;
56599;SDS011;51832;48.152;11.530;2023-03-23T11:41:08;4.10;;;2.60;;
56599;SDS011;51832;48.152;11.530;2023-03-23T11:46:27;4.25;;;2.78;;
56599;SDS011;51832;48.152;11.530;2023-03-23T11:51:37;3.67;;;2.65;;
56599;SDS011;51832;48.152;11.530;2023-03-23T11:56:43;3.35;;;2.80;;
56599;SDS011;51832;48.152;11.530;2023-03-23T12:01:53;4.47;;;2.90;;
56599;SDS011;51832;48.152;11.530;2023-03-23T12:12:27;6.18;;;3.03;;
56599;SDS011;51832;48.152;11.530;2023-03-23T12:17:40;5.47;;;3.10;;
56599;SDS011;51832;48.152;11.530;2023-03-23T12:22:56;5.28;;;3.00;;
56599;SDS011;51832;48.152;11.530;2023-03-23T12:28:18;5.57;;;2.90;;
56599;SDS011;51832;48.152;11.530;2023-03-23T12:33:38;4.75;;;3.30;;
56599;SDS011;51832;48.152;11.530;2023-03-23T12:43:53;5.65;;;2.55;;
56599;SDS011;51832;48.152;11.530;2023-03-23T12:49:08;3.80;;;2.47;;
56599;SDS011;51832;48.152;11.530;2023-03-23T12:59:25;2.42;;;2.10;;
56599;SDS011;51832;48.152;11.530;2023-03-23T13:04:40;2.42;;;2.22;;
56599;SDS011;51832;48.152;11.530;2023-03-23T13:09:55;2.72;;;1.90;;
56599;SDS011;51832;48.152;11.530;2023-03-23T13:30:36;2.55;;;2.20;;
56599;SDS011;51832;48.152;11.530;2023-03-23T13:35:37;2.38;;;2.17;;
56599;SDS011;51832;48.152;11.530;2023-03-23T13:40:42;2.33;;;1.98;;
56599;SDS011;51832;48.152;11.530;2023-03-23T13:45:45;2.10;;;1.90;;
56599;SDS011;51832;48.152;11.530;2023-03-23T13:50:52;2.13;;;1.77;;
56599;SDS011;51832;48.152;11.530;2023-03-23T14:01:31;2.10;;;1.60;;
56599;SDS011;51832;48.152;11.530;2023-03-23T14:06:35;1.90;;;1.70;;
56599;SDS011;51832;48.152;11.530;2023-03-23T14:12:37;3.80;;;1.65;;
56599;SDS011;51832;48.152;11.530;2023-03-23T14:17:22;2.22;;;1.88;;
56599;SDS011;51832;48.152;11.530;2023-03-23T14:22:32;2.17;;;1.90;;
56599;SDS011;51832;48.152;11.530;2023-03-23T14:27:35;1.60;;;1.40;;
56599;SDS011;51832;48.152;11.530;2023-03-23T14:32:36;2.22;;;1.60;;
56599;SDS011;51832;48.152;11.530;2023-03-23T14:37:36;2.53;;;1.90;;
56599;SDS011;51832;48.152;11.530;2023-03-23T14:42:37;2.92;;;1.73;;
56599;SDS011;51832;48.152;11.530;2023-03-23T14:47:42;3.38;;;1.70;;
56599;SDS011;51832;48.152;11.530;2023-03-23T14:52:47;2.75;;;1.60;;
56599;SDS011;51832;48.152;11.530;2023-03-23T14:57:48;2.20;;;2.00;;
56599;SDS011;51832;48.152;11.530;2023-03-23T15:02:51;1.75;;;1.65;;
56599;SDS011;51832;48.152;11.530;2023-03-23T15:07:56;2.80;;;2.08;;
56599;SDS011;51832;48.152;11.530;2023-03-23T15:13:03;3.08;;;2.13;;
56599;SDS011;51832;48.152;11.530;2023-03-23T15:18:03;2.35;;;1.90;;
56599;SDS011;51832;48.152;11.530;2023-03-23T15:23:05;3.17;;;1.80;;
56599;SDS011;51832;48.152;11.530;2023-03-23T15:28:14;2.63;;;2.03;;
56599;SDS011;51832;48.152;11.530;2023-03-23T15:33:41;2.95;;;2.10;;
56599;SDS011;51832;48.152;11.530;2023-03-23T15:38:43;1.98;;;1.80;;
56599;SDS011;51832;48.152;11.530;2023-03-23T15:43:49;2.92;;;2.08;;
56599;SDS011;51832;48.152;11.530;2023-03-23T15:53:58;2.22;;;1.80;;
56599;SDS011;51832;48.152;11.530;2023-03-23T15:58:59;2.25;;;2.00;;
56599;SDS011;51832;48.152;11.530;2023-03-23T16:04:11;3.03;;;2.30;;
56599;SDS011;51832;48.152;11.530;2023-03-23T16:09:15;2.42;;;1.77;;
56599;SDS011;51832;48.152;11.530;2023-03-23T16:14:17;2.55;;;2.00;;
56599;SDS011;51832;48.152;11.530;2023-03-23T16:19:18;3.80;;;2.20;;
56599;SDS011;51832;48.152;11.530;2023-03-23T16:24:20;2.65;;;2.08;;
56599;SDS011;51832;48.152;11.530;2023-03-23T16:29:20;2.40;;;1.83;;
56599;SDS011;51832;48.152;11.530;2023-03-23T16:34:21;2.08;;;1.83;;
56599;SDS011;51832;48.152;11.530;2023-03-23T16:39:22;2.58;;;2.00;;
56599;SDS011;51832;48.152;11.530;2023-03-23T16:44:22;3.40;;;1.97;;
56599;SDS011;51832;48.152;11.530;2023-03-23T16:49:23;3.65;;;2.10;;
56599;SDS011;51832;48.152;11.530;2023-03-23T16:54:23;4.63;;;2.00;;
56599;SDS011;51832;48.152;11.530;2023-03-23T16:59:26;2.78;;;2.05;;
56599;SDS011;51832;48.152;11.530;2023-03-23T17:04:27;2.53;;;2.20;;
56599;SDS011;51832;48.152;11.530;2023-03-23T17:09:28;4.38;;;2.33;;
56599;SDS011;51832;48.152;11.530;2023-03-23T17:14:28;3.45;;;2.15;;
56599;SDS011;51832;48.152;11.530;2023-03-23T17:19:29;2.85;;;2.08;;
56599;SDS011;51832;48.152;11.530;2023-03-23T17:24:29;2.65;;;2.13;;
56599;SDS011;51832;48.152;11.530;2023-03-23T17:29:30;3.92;;;2.90;;
56599;SDS011;51832;48.152;11.530;2023-03-23T17:34:30;4.00;;;2.38;;
56599;SDS011;51832;48.152;11.530;2023-03-23T17:39:30;3.93;;;2.17;;
56599;SDS011;51832;48.152;11.530;2023-03-23T17:44:31;3.28;;;2.42;;
56599;SDS011;51832;48.152;11.530;2023-03-23T17:49:32;3.30;;;2.45;;
56599;SDS011;51832;48.152;11.530;2023-03-23T17:54:32;8.27;;;6.45;;
56599;SDS011;51832;48.152;11.530;2023-03-23T17:59:32;4.53;;;3.07;;
56599;SDS011;51832;48.152;11.530;2023-03-23T18:04:33;5.57;;;3.38;;
56599;SDS011;51832;48.152;11.530;2023-03-23T18:09:33;2.50;;;2.20;;
56599;SDS011;51832;48.152;11.530;2023-03-23T18:14:34;4.53;;;2.45;;
56599;SDS011;51832;48.152;11.530;2023-03-23T18:19:35;4.68;;;3.22;;
56599;SDS011;51832;48.152;11.530;2023-03-23T18:24:35;3.65;;;2.55;;
56599;SDS011;51832;48.152;11.530;2023-03-23T18:29:36;3.17;;;2.80;;
56599;SDS011;51832;48.152;11.530;2023-03-23T18:34:38;4.03;;;2.80;;
56599;SDS011;51832;48.152;11.530;2023-03-23T18:39:40;4.90;;;3.10;;
56599;SDS011;51832;48.152;11.530;2023-03-23T18:44:41;8.15;;;4.93;;
56599;SDS011;51832;48.152;11.530;2023-03-23T18:49:41;7.15;;;3.67;;
56599;SDS011;51832;48.152;11.530;2023-03-23T18:54:41;8.55;;;4.50;;
56599;SDS011;51832;48.152;11.530;2023-03-23T18:59:44;9.37;;;4.07;;
56599;SDS011;51832;48.152;11.530;2023-03-23T19:04:45;6.90;;;4.50;;
56599;SDS011;51832;48.152;11.530;2023-03-23T19:09:46;5.15;;;3.15;;
56599;SDS011;51832;48.152;11.530;2023-03-23T19:14:47;6.85;;;3.72;;
56599;SDS011;51832;48.152;11.530;2023-03-23T19:19:47;6.05;;;3.50;;
56599;SDS011;51832;48.152;11.530;2023-03-23T19:24:47;4.22;;;3.22;;
56599;SDS011;51832;48.152;11.530;2023-03-23T19:29:48;6.60;;;3.33;;
56599;SDS011;51832;48.152;11.530;2023-03-23T19:34:48;5.20;;;3.38;;
56599;SDS011;51832;48.152;11.530;2023-03-23T19:39:49;6.25;;;4.28;;
56599;SDS011;51832;48.152;11.530;2023-03-23T19:44:49;6.50;;;3.63;;
56599;SDS011;51832;48.152;11.530;2023-03-23T19:49:50;6.03;;;3.35;;
56599;SDS011;51832;48.152;11.530;2023-03-23T19:54:50;4.45;;;3.05;;
56599;SDS011;51832;48.152;11.530;2023-03-23T19:59:51;6.18;;;3.55;;
56599;SDS011;51832;48.152;11.530;2023-03-23T20:04:51;4.28;;;3.10;;
56599;SDS011;51832;48.152;11.530;2023-03-23T20:09:51;3.90;;;2.83;;
56599;SDS011;51832;48.152;11.530;2023-03-23T20:14:52;4.27;;;2.70;;
56599;SDS011;51832;48.152;11.530;2023-03-23T20:19:52;3.50;;;2.80;;
56599;SDS011;51832;48.152;11.530;2023-03-23T20:24:53;4.50;;;3.08;;
56599;SDS011;51832;48.152;11.530;2023-03-23T20:29:53;4.10;;;3.20;;
56599;SDS011;51832;48.152;11.530;2023-03-23T20:34:54;5.43;;;3.53;;
56599;SDS011;51832;48.152;11.530;2023-03-23T20:39:56;6.25;;;3.42;;
56599;SDS011;51832;48.152;11.530;2023-03-23T20:44:56;4.75;;;3.28;;
56599;SDS011;51832;48.152;11.530;2023-03-23T20:49:57;5.10;;;3.60;;
56599;SDS011;51832;48.152;11.530;2023-03-23T20:54:57;4.22;;;3.03;;
56599;SDS011;51832;48.152;11.530;2023-03-23T20:59:58;3.72;;;3.00;;
56599;SDS011;51832;48.152;11.530;2023-03-23T21:04:58;4.25;;;3.05;;
56599;SDS011;51832;48.152;11.530;2023-03-23T21:10:03;4.30;;;2.85;;
56599;SDS011;51832;48.152;11.530;2023-03-23T21:15:03;6.28;;;3.03;;
56599;SDS011;51832;48.152;11.530;2023-03-23T21:20:05;3.72;;;3.15;;
56599;SDS011;51832;48.152;11.530;2023-03-23T21:25:06;5.13;;;3.00;;
56599;SDS011;51832;48.152;11.530;2023-03-23T21:30:09;4.38;;;3.33;;
56599;SDS011;51832;48.152;11.530;2023-03-23T21:35:09;4.65;;;3.17;;
56599;SDS011;51832;48.152;11.530;2023-03-23T21:40:11;5.70;;;3.35;;
56599;SDS011;51832;48.152;11.530;2023-03-23T21:45:13;4.93;;;3.27;;
56599;SDS011;51832;48.152;11.530;2023-03-23T21:50:17;5.85;;;3.67;;
56599;SDS011;51832;48.152;11.530;2023-03-23T21:55:20;6.10;;;4.18;;
56599;SDS011;51832;48.152;11.530;2023-03-23T22:00:22;4.25;;;3.20;;
56599;SDS011;51832;48.152;11.530;2023-03-23T22:05:22;4.40;;;3.22;;
56599;SDS011;51832;48.152;11.530;2023-03-23T22:10:23;4.70;;;3.60;;
56599;SDS011;51832;48.152;11.530;2023-03-23T22:15:24;4.32;;;3.40;;
56599;SDS011;51832;48.152;11.530;2023-03-23T22:20:26;5.73;;;4.10;;
56599;SDS011;51832;48.152;11.530;2023-03-23T22:25:28;7.55;;;4.97;;
56599;SDS011;51832;48.152;11.530;2023-03-23T22:30:30;4.97;;;3.83;;
56599;SDS011;51832;48.152;11.530;2023-03-23T22:35:31;6.07;;;3.72;;
56599;SDS011;51832;48.152;11.530;2023-03-23T22:40:32;5.38;;;3.83;;
56599;SDS011;51832;48.152;11.530;2023-03-23T22:45:33;6.70;;;3.60;;
56599;SDS011;51832;48.152;11.530;2023-03-23T22:50:34;4.93;;;3.38;;
56599;SDS011;51832;48.152;11.530;2023-03-23T22:55:34;4.72;;;3.80;;
56599;SDS011;51832;48.152;11.530;2023-03-23T23:00:35;5.45;;;3.35;;
56599;SDS011;51832;48.152;11.530;2023-03-23T23:05:43;6.38;;;3.28;;
56599;SDS011;51832;48.152;11.530;2023-03-23T23:10:47;7.63;;;4.32;;
56599;SDS011;51832;48.152;11.530;2023-03-23T23:15:50;3.47;;;3.00;;
56599;SDS011;51832;48.152;11.530;2023-03-23T23:25:53;4.80;;;3.22;;
56599;SDS011;51832;48.152;11.530;2023-03-23T23:30:54;3.95;;;2.97;;
56599;SDS011;51832;48.152;11.530;2023-03-23T23:35:55;4.80;;;3.53;;
56599;SDS011;51832;48.152;11.530;2023-03-23T23:40:55;3.55;;;2.97;;
56599;SDS011;51832;48.152;11.530;2023-03-23T23:45:56;6.07;;;3.35;;
56599;SDS011;51832;48.152;11.530;2023-03-23T23:50:57;3.58;;;2.67;;
56599;SDS011;51832;48.152;11.530;2023-03-23T23:56:01;4.50;;;2.80;;
